Time;durP1;ratioP1;P1;durP2;ratioP2;P2;SDS_P1;SDS_P2;PMS_P1;PMS_P2;Temp;Humidity;BMP_temperature;BMP_pressure;BME280_temperature;BME280_humidity;BME280_pressure;Samples;Min_cycle;Max_cycle;Signal;HPM_P1;HPM_P2
2023/04/26 00:02:10;;;;;;;5.85;1.75;;;4.90;83.10;;;;;;5074752;28;20095;-45
2023/04/26 00:04:40;;;;;;;7.95;1.60;;;4.90;83.20;;;;;;5082388;28;20035;-44
2023/04/26 00:07:07;;;;;;;;;;;4.80;83.40;;;;;;5077443;28;20028;-44
2023/04/26 00:09:35;;;;;;;8.57;1.88;;;4.80;83.80;;;;;;5076834;28;19920;-45
2023/04/26 00:12:04;;;;;;;6.70;1.77;;;4.70;83.90;;;;;;5071884;28;20049;-44
2023/04/26 00:14:30;;;;;;;8.27;2.17;;;4.70;84.00;;;;;;5074051;28;20059;-44
2023/04/26 00:16:57;;;;;;;4.03;1.58;;;4.70;84.30;;;;;;5073856;28;20043;-43
2023/04/26 00:19:24;;;;;;;7.55;2.00;;;4.60;84.40;;;;;;5056336;28;20028;-43
2023/04/26 00:21:51;;;;;;;6.10;2.03;;;4.70;84.60;;;;;;5055860;28;20059;-45
2023/04/26 00:24:18;;;;;;;5.53;1.70;;;4.60;84.70;;;;;;5073789;28;20111;-46
2023/04/26 00:26:43;;;;;;;9.70;1.77;;;4.60;84.70;;;;;;5056350;28;20029;-45
2023/04/26 00:29:11;;;;;;;6.55;1.70;;;4.60;84.70;;;;;;5074057;28;20158;-44
2023/04/26 00:31:38;;;;;;;8.43;2.05;;;4.50;84.80;;;;;;5073962;28;20118;-44
2023/04/26 00:34:08;;;;;;;6.53;2.00;;;4.50;84.90;;;;;;5056232;28;20436;-44
2023/04/26 00:36:37;;;;;;;10.43;1.98;;;4.50;85.10;;;;;;5074035;28;20713;-45
2023/04/26 00:39:05;;;;;;;;;;;4.50;85.20;;;;;;5074324;28;20028;-45
2023/04/26 00:41:32;;;;;;;5.28;2.25;;;4.50;85.20;;;;;;5073660;28;19994;-44
2023/04/26 00:43:59;;;;;;;9.77;2.58;;;4.60;85.20;;;;;;5073519;28;20028;-44
2023/04/26 00:46:27;;;;;;;5.53;2.03;;;4.60;85.00;;;;;;5073667;28;20052;-45
2023/04/26 00:48:56;;;;;;;6.60;2.07;;;4.60;85.00;;;;;;5056378;28;20107;-45
2023/04/26 00:51:23;;;;;;;7.57;2.30;;;4.60;85.10;;;;;;5073485;28;20032;-44
2023/04/26 00:53:50;;;;;;;9.00;2.13;;;4.60;84.80;;;;;;5073402;28;20035;-45
2023/04/26 00:56:17;;;;;;;10.63;2.63;;;4.60;84.50;;;;;;5073625;28;20482;-45
2023/04/26 00:58:45;;;;;;;8.20;1.80;;;4.70;84.50;;;;;;5056503;28;20032;-44
2023/04/26 01:01:13;;;;;;;7.13;2.78;;;4.70;84.30;;;;;;5073338;28;20078;-45
2023/04/26 01:03:45;;;;;;;13.32;3.35;;;4.80;84.40;;;;;;5073192;28;20146;-44
2023/04/26 01:06:22;;;;;;;10.57;2.30;;;4.80;84.20;;;;;;5072680;28;20389;-45
2023/04/26 01:08:50;;;;;;;10.88;2.42;;;4.80;84.10;;;;;;5073315;28;20032;-44
2023/04/26 01:11:23;;;;;;;16.73;4.23;;;4.80;83.80;;;;;;5055912;28;20519;-45
2023/04/26 01:13:50;;;;;;;13.30;4.65;;;4.80;83.40;;;;;;5056125;28;20071;-44
2023/04/26 01:16:20;;;;;;;12.10;3.90;;;4.80;83.50;;;;;;5055713;28;20024;-47
2023/04/26 01:18:53;;;;;;;13.98;5.15;;;4.80;83.50;;;;;;5038900;28;20024;-43
2023/04/26 01:21:25;;;;;;;9.32;3.70;;;4.80;83.60;;;;;;5055362;28;20531;-45
2023/04/26 01:23:52;;;;;;;7.85;2.80;;;4.80;83.70;;;;;;5073106;28;20067;-45
2023/04/26 01:26:21;;;;;;;11.07;2.55;;;4.80;83.60;;;;;;5055609;28;20032;-45
2023/04/26 01:28:49;;;;;;;7.50;2.15;;;4.80;84.00;;;;;;5073238;28;20142;-44
2023/04/26 01:31:20;;;;;;;14.73;3.38;;;4.80;84.40;;;;;;5072964;28;20055;-44
2023/04/26 01:33:46;;;;;;;11.90;4.80;;;4.80;84.80;;;;;;5072761;28;20021;-44
2023/04/26 01:36:13;;;;;;;14.80;6.18;;;4.80;84.80;;;;;;5073067;28;20369;-44
2023/04/26 01:38:44;;;;;;;12.25;4.53;;;4.80;85.10;;;;;;5073032;28;20051;-44
2023/04/26 01:41:12;;;;;;;7.70;2.50;;;4.80;85.00;;;;;;5073146;28;20036;-46
2023/04/26 01:43:41;;;;;;;9.45;2.78;;;4.70;84.90;;;;;;5072821;28;20474;-46
2023/04/26 01:46:10;;;;;;;9.80;2.80;;;4.80;85.20;;;;;;5072902;28;20037;-43
2023/04/26 01:48:36;;;;;;;8.15;2.95;;;4.70;85.50;;;;;;5072928;28;20031;-42
2023/04/26 01:51:05;;;;;;;8.20;3.45;;;4.60;86.10;;;;;;5055211;28;20031;-44
2023/04/26 01:53:32;;;;;;;5.22;2.63;;;4.50;86.00;;;;;;5072887;28;20020;-43
2023/04/26 01:56:02;;;;;;;8.63;2.65;;;4.50;86.10;;;;;;5073017;28;20035;-45
2023/04/26 01:58:30;;;;;;;5.85;2.33;;;4.50;86.10;;;;;;5072811;28;20054;-44
2023/04/26 02:01:07;;;;;;;6.88;3.05;;;4.50;86.20;;;;;;5072850;28;20315;-44
2023/04/26 02:03:36;;;;;;;7.35;3.00;;;4.50;86.30;;;;;;5055677;28;20037;-44
2023/04/26 02:06:02;;;;;;;6.95;2.63;;;4.50;86.40;;;;;;5039012;28;20029;-44
2023/04/26 02:08:28;;;;;;;8.68;3.60;;;4.50;86.60;;;;;;5054788;28;20043;-44
2023/04/26 02:10:55;;;;;;;8.80;2.92;;;4.60;86.40;;;;;;5054975;28;20062;-44
2023/04/26 02:13:23;;;;;;;5.05;2.38;;;4.60;86.50;;;;;;5055534;28;20059;-43
2023/04/26 02:15:51;;;;;;;5.38;2.70;;;4.60;86.40;;;;;;5076811;28;20016;-43
2023/04/26 02:18:20;;;;;;;5.00;2.15;;;4.60;86.60;;;;;;5076715;28;20029;-42
2023/04/26 02:20:48;;;;;;;5.75;2.17;;;4.60;86.70;;;;;;5076663;28;20523;-44
2023/04/26 02:23:15;;;;;;;11.25;3.53;;;4.60;86.80;;;;;;5076231;28;20043;-43
2023/04/26 02:25:47;;;;;;;7.20;2.75;;;4.70;86.90;;;;;;5076723;28;20024;-42
2023/04/26 02:28:16;;;;;;;9.98;2.50;;;4.60;86.80;;;;;;5076348;28;20476;-44
2023/04/26 02:30:43;;;;;;;9.23;2.75;;;4.60;86.80;;;;;;5076712;28;20103;-43
2023/04/26 02:33:10;;;;;;;9.52;3.00;;;4.60;86.80;;;;;;5076030;28;20028;-44
2023/04/26 02:35:43;;;;;;;10.32;4.30;;;4.60;86.70;;;;;;5076489;28;20028;-44
2023/04/26 02:38:13;;;;;;;10.57;3.10;;;4.60;86.90;;;;;;5076157;28;20028;-43
2023/04/26 02:40:40;;;;;;;9.98;3.40;;;4.50;86.80;;;;;;5076157;28;20028;-43
2023/04/26 02:43:09;;;;;;;7.28;2.90;;;4.40;86.80;;;;;;5058267;28;20032;-43
2023/04/26 02:45:44;;;;;;;7.35;3.20;;;4.40;87.10;;;;;;5091475;28;20051;-44
2023/04/26 02:48:13;;;;;;;11.85;3.78;;;4.40;87.20;;;;;;5079010;28;20036;-42
2023/04/26 02:50:42;;;;;;;6.10;3.03;;;4.40;87.20;;;;;;5096084;28;20506;-43
2023/04/26 02:53:08;;;;;;;9.65;5.07;;;4.40;87.10;;;;;;5086070;28;20028;-44
2023/04/26 02:55:38;;;;;;;10.23;4.70;;;4.40;87.20;;;;;;5075425;28;20027;-42
2023/04/26 02:58:07;;;;;;;5.97;2.85;;;4.40;87.20;;;;;;5060375;28;20033;-43
2023/04/26 03:00:36;;;;;;;7.90;3.25;;;4.30;87.10;;;;;;5095725;28;20036;-43
2023/04/26 03:03:02;;;;;;;10.73;4.38;;;4.30;87.10;;;;;;5095049;28;20124;-43
2023/04/26 03:05:28;;;;;;;5.07;2.72;;;4.20;87.10;;;;;;5076147;28;20112;-42
2023/04/26 03:07:55;;;;;;;9.05;3.40;;;4.30;87.20;;;;;;5075626;28;20120;-44
2023/04/26 03:10:25;;;;;;;7.70;3.38;;;4.30;87.30;;;;;;5075626;28;20025;-43
2023/04/26 03:12:54;;;;;;;5.60;2.95;;;4.30;87.00;;;;;;5075689;28;20021;-43
2023/04/26 03:15:19;;;;;;;5.38;2.60;;;4.30;87.10;;;;;;5095745;28;20327;-43
2023/04/26 03:17:58;;;;;;;12.85;3.53;;;4.30;86.80;;;;;;5095771;28;20024;-45
2023/04/26 03:20:31;;;;;;;15.13;3.05;;;4.30;86.80;;;;;;5095733;28;20098;-42
2023/04/26 03:22:58;;;;;;;7.85;2.92;;;4.30;86.90;;;;;;5091092;28;20044;-42
2023/04/26 03:25:27;;;;;;;7.68;3.20;;;4.30;86.80;;;;;;5074346;28;20098;-42
2023/04/26 03:27:54;;;;;;;9.48;2.72;;;4.40;86.90;;;;;;5075265;28;20028;-43
2023/04/26 03:30:23;;;;;;;10.98;3.95;;;4.40;87.00;;;;;;5075537;28;20040;-44
2023/04/26 03:32:49;;;;;;;7.50;3.25;;;4.40;87.00;;;;;;5075504;28;20437;-43
2023/04/26 03:35:17;;;;;;;8.15;3.13;;;4.30;86.60;;;;;;5075250;28;20025;-44
2023/04/26 03:37:46;;;;;;;12.02;4.97;;;4.40;85.90;;;;;;5075024;28;20097;-45
2023/04/26 03:40:13;;;;;;;7.95;3.60;;;4.40;85.00;;;;;;5075564;28;20039;-43
2023/04/26 03:42:39;;;;;;;12.73;3.50;;;4.40;85.00;;;;;;5086746;28;20039;-44
2023/04/26 03:45:07;;;;;;;5.75;2.80;;;4.50;84.90;;;;;;5057891;28;20025;-43
2023/04/26 03:47:34;;;;;;;9.52;3.25;;;4.50;84.80;;;;;;5070471;28;20028;-44
2023/04/26 03:50:03;;;;;;;8.73;3.58;;;4.50;85.00;;;;;;5095285;28;20028;-43
2023/04/26 03:52:33;;;;;;;8.65;3.92;;;4.60;85.10;;;;;;5089018;28;20034;-42
2023/04/26 03:55:00;;;;;;;7.80;3.03;;;4.60;85.00;;;;;;5074970;28;20339;-43
2023/04/26 03:57:27;;;;;;;6.03;3.25;;;4.70;85.00;;;;;;5074549;28;20445;-42
2023/04/26 03:59:55;;;;;;;6.90;2.72;;;4.70;84.90;;;;;;5074899;28;20116;-43
2023/04/26 04:02:21;;;;;;;9.90;3.40;;;4.70;85.20;;;;;;5077199;28;20742;-44
2023/04/26 04:04:49;;;;;;;7.55;2.97;;;4.70;85.20;;;;;;5094799;28;20074;-43
2023/04/26 04:07:16;;;;;;;8.65;3.10;;;4.70;85.30;;;;;;5089991;28;20044;-43
2023/04/26 04:09:43;;;;;;;6.28;3.13;;;4.70;85.50;;;;;;5074412;28;20025;-45
2023/04/26 04:12:13;;;;;;;8.23;3.90;;;4.70;85.60;;;;;;5073384;28;20112;-42
2023/04/26 04:14:41;;;;;;;10.43;3.40;;;4.70;85.80;;;;;;5074235;28;20036;-43
2023/04/26 04:17:08;;;;;;;8.75;3.30;;;4.70;85.90;;;;;;5074258;28;20051;-43
2023/04/26 04:19:37;;;;;;;6.70;3.03;;;4.70;86.30;;;;;;5071508;28;20042;-44
2023/04/26 04:22:03;;;;;;;9.90;4.10;;;4.70;86.20;;;;;;5056634;28;20033;-43
2023/04/26 04:24:31;;;;;;;8.02;3.53;;;4.70;86.10;;;;;;5074200;28;20060;-42
2023/04/26 04:27:00;;;;;;;8.52;3.33;;;4.60;85.90;;;;;;5056326;28;20051;-42
2023/04/26 04:29:31;;;;;;;10.10;3.55;;;4.60;86.00;;;;;;5074102;28;20055;-44
2023/04/26 04:31:59;;;;;;;6.45;3.10;;;4.60;86.00;;;;;;5074184;28;20028;-43
2023/04/26 04:34:26;;;;;;;8.57;3.05;;;4.50;86.00;;;;;;5073698;28;20060;-43
2023/04/26 04:36:53;;;;;;;10.95;3.80;;;4.50;86.00;;;;;;5073534;28;20028;-42
2023/04/26 04:39:20;;;;;;;9.73;3.78;;;4.50;86.20;;;;;;5073910;28;20033;-43
2023/04/26 04:41:47;;;;;;;11.43;3.22;;;4.60;86.00;;;;;;5073675;28;20063;-44
2023/04/26 04:44:18;;;;;;;8.18;3.10;;;4.50;85.70;;;;;;5073791;28;20032;-42
2023/04/26 04:46:52;;;;;;;7.55;3.35;;;4.50;85.50;;;;;;5058108;28;20063;-43
2023/04/26 04:49:21;;;;;;;9.02;3.35;;;4.50;85.50;;;;;;5071591;28;20068;-43
2023/04/26 04:51:47;;;;;;;8.07;3.33;;;4.60;85.30;;;;;;5073529;28;20016;-44
2023/04/26 04:54:17;;;;;;;7.53;3.10;;;4.50;85.10;;;;;;5073661;28;20021;-43
2023/04/26 04:56:44;;;;;;;10.18;3.38;;;4.60;85.10;;;;;;5069372;28;20514;-42
2023/04/26 04:59:11;;;;;;;7.38;2.65;;;4.50;84.90;;;;;;5070137;28;20028;-44
2023/04/26 05:01:39;;;;;;;11.82;3.50;;;4.60;85.10;;;;;;5073136;28;20025;-44
2023/04/26 05:04:07;;;;;;;9.43;3.08;;;4.70;84.70;;;;;;5073304;28;20028;-43
2023/04/26 05:06:35;;;;;;;6.35;2.92;;;4.90;84.70;;;;;;5073181;28;20029;-43
2023/04/26 05:09:04;;;;;;;7.60;2.88;;;5.10;84.20;;;;;;5073174;28;20029;-48
2023/04/26 05:11:33;;;;;;;7.70;3.47;;;5.30;83.60;;;;;;5073374;28;20020;-57
2023/04/26 05:14:02;;;;;;;12.45;3.88;;;5.10;82.80;;;;;;5073172;28;20449;-50
2023/04/26 05:16:30;;;;;;;15.05;3.25;;;4.90;84.00;;;;;;5055635;28;20460;-48
2023/04/26 05:18:57;;;;;;;8.70;3.17;;;4.90;84.50;;;;;;5073091;28;20074;-47
2023/04/26 05:21:23;;;;;;;8.25;3.72;;;4.90;84.50;;;;;;5072880;28;20419;-47
2023/04/26 05:23:49;;;;;;;10.40;3.40;;;4.80;84.70;;;;;;5063775;28;20422;-47
2023/04/26 05:26:17;;;;;;;10.80;3.70;;;4.80;85.00;;;;;;5075691;28;20064;-46
2023/04/26 05:28:43;;;;;;;8.70;2.78;;;4.70;84.90;;;;;;5074981;28;20032;-47
2023/04/26 05:31:12;;;;;;;6.63;3.25;;;4.60;85.40;;;;;;5072987;28;20085;-46
2023/04/26 05:33:40;;;;;;;6.17;3.53;;;4.60;85.40;;;;;;5055738;28;20414;-46
2023/04/26 05:36:08;;;;;;;10.65;4.50;;;4.70;85.70;;;;;;5075934;28;20269;-45
2023/04/26 05:38:38;;;;;;;10.30;3.92;;;5.00;85.60;;;;;;5092770;28;20032;-45
2023/04/26 05:41:05;;;;;;;12.70;3.88;;;5.30;85.30;;;;;;5081498;28;20028;-44
2023/04/26 05:43:32;;;;;;;12.25;2.97;;;5.70;85.00;;;;;;5072472;28;20453;-44
2023/04/26 05:46:00;;;;;;;8.55;3.05;;;5.90;84.20;;;;;;5092864;28;20024;-44
2023/04/26 05:48:28;;;;;;;7.57;3.47;;;6.30;83.90;;;;;;5092452;28;20031;-45
2023/04/26 05:50:55;;;;;;;8.57;3.33;;;6.50;82.10;;;;;;5079312;28;20032;-44
2023/04/26 05:53:23;;;;;;;7.55;2.60;;;6.70;81.40;;;;;;5072655;28;20137;-44
2023/04/26 05:55:52;;;;;;;6.38;2.25;;;6.80;80.40;;;;;;5072839;28;20024;-44
2023/04/26 05:58:20;;;;;;;5.68;2.30;;;6.60;79.20;;;;;;5071333;28;20367;-43
2023/04/26 06:00:50;;;;;;;8.05;2.95;;;6.50;79.30;;;;;;5071712;28;20028;-46
2023/04/26 06:03:16;;;;;;;8.27;2.45;;;6.40;78.70;;;;;;5071600;28;20029;-45
2023/04/26 06:05:43;;;;;;;5.28;2.05;;;6.40;78.60;;;;;;5074017;28;20323;-45
2023/04/26 06:08:10;;;;;;;5.88;1.60;;;6.40;79.10;;;;;;5075449;28;20101;-43
2023/04/26 06:10:36;;;;;;;4.90;1.83;;;6.40;79.00;;;;;;5092779;28;20059;-45
2023/04/26 06:13:03;;;;;;;5.03;2.35;;;6.40;79.40;;;;;;5092886;28;20460;-42
2023/04/26 06:15:30;;;;;;;6.15;2.38;;;6.40;79.60;;;;;;5055175;28;20040;-42
2023/04/26 06:17:57;;;;;;;3.55;1.80;;;6.50;79.70;;;;;;5072825;28;20052;-42
2023/04/26 06:20:36;;;;;;;5.82;2.63;;;6.40;79.40;;;;;;5054394;28;20141;-44
2023/04/26 06:23:06;;;;;;;6.00;2.30;;;6.30;78.60;;;;;;5054464;28;20024;-43
2023/04/26 06:25:35;;;;;;;8.18;2.92;;;6.30;78.70;;;;;;5072554;28;20016;-42
2023/04/26 06:28:04;;;;;;;11.57;2.40;;;6.20;79.30;;;;;;5072804;28;20090;-46
2023/04/26 06:30:31;;;;;;;5.28;2.10;;;6.40;79.60;;;;;;5072469;28;20028;-41
2023/04/26 06:33:00;;;;;;;7.55;3.08;;;6.70;80.10;;;;;;5072517;28;20020;-43
2023/04/26 06:35:27;;;;;;;6.70;2.33;;;6.90;79.80;;;;;;5072427;28;20350;-44
2023/04/26 06:37:55;;;;;;;7.07;3.30;;;7.20;80.10;;;;;;5072594;28;20174;-42
2023/04/26 06:40:22;;;;;;;6.78;2.53;;;7.40;79.80;;;;;;5072561;28;20442;-41
2023/04/26 06:42:50;;;;;;;7.38;2.58;;;7.70;79.20;;;;;;5054910;28;20032;-45
2023/04/26 06:45:15;;;;;;;9.27;2.90;;;7.70;77.90;;;;;;5072158;28;20036;-43
2023/04/26 06:47:43;;;;;;;12.98;3.00;;;7.50;77.10;;;;;;5072252;28;20039;-43
2023/04/26 06:50:13;;;;;;;9.85;2.63;;;7.40;78.10;;;;;;5054268;28;20489;-54
2023/04/26 06:52:39;;;;;;;;;;;6.90;79.30;;;;;;5072371;28;20032;-50
2023/04/26 06:55:06;;;;;;;5.85;1.90;;;6.30;81.30;;;;;;5054314;28;19923;-48
2023/04/26 06:57:33;;;;;;;21.75;6.00;;;6.10;82.80;;;;;;5054359;28;20021;-49
2023/04/26 07:00:00;;;;;;;6.70;1.88;;;5.90;83.90;;;;;;5073711;28;20039;-49
2023/04/26 07:02:27;;;;;;;7.22;1.73;;;5.70;84.50;;;;;;5075890;28;20029;-46
2023/04/26 07:04:54;;;;;;;11.15;2.00;;;5.50;83.70;;;;;;5075871;28;20085;-46
2023/04/26 07:07:26;;;;;;;6.25;2.17;;;5.50;84.10;;;;;;5075702;28;20389;-46
2023/04/26 07:09:54;;;;;;;7.45;2.00;;;5.60;84.20;;;;;;5075470;28;20460;-45
2023/04/26 07:12:22;;;;;;;9.70;2.33;;;5.80;83.90;;;;;;5075682;28;20016;-48
2023/04/26 07:14:49;;;;;;;8.60;1.92;;;5.90;83.60;;;;;;5075539;28;20025;-45
2023/04/26 07:17:18;;;;;;;8.68;1.63;;;6.00;83.10;;;;;;5075468;28;20093;-44
2023/04/26 07:19:44;;;;;;;6.05;2.10;;;6.20;83.00;;;;;;5075053;28;20037;-44
2023/04/26 07:22:11;;;;;;;6.57;1.40;;;6.40;83.20;;;;;;5075249;28;20059;-43
2023/04/26 07:24:38;;;;;;;5.30;1.70;;;6.70;82.10;;;;;;5075578;28;20104;-43
2023/04/26 07:27:05;;;;;;;12.15;2.15;;;6.80;80.60;;;;;;5071352;28;20031;-44
2023/04/26 07:29:35;;;;;;;5.85;1.98;;;6.80;79.90;;;;;;5095711;28;20036;-44
2023/04/26 07:32:00;;;;;;;5.20;1.97;;;7.00;80.90;;;;;;5095722;28;20024;-43
2023/04/26 07:34:27;;;;;;;8.57;1.98;;;7.10;80.70;;;;;;5095478;28;20488;-43
2023/04/26 07:36:57;;;;;;;7.68;1.90;;;7.30;80.70;;;;;;5079444;28;20075;-42
2023/04/26 07:39:25;;;;;;;7.88;1.45;;;7.60;81.20;;;;;;5075115;28;20145;-44
2023/04/26 07:41:51;;;;;;;5.18;1.50;;;7.40;80.40;;;;;;5074948;28;20058;-43
2023/04/26 07:44:20;;;;;;;3.33;1.70;;;7.00;80.60;;;;;;5074676;28;20077;-43
2023/04/26 07:46:46;;;;;;;4.70;1.67;;;6.90;81.50;;;;;;5074730;28;20033;-42
2023/04/26 07:49:12;;;;;;;5.85;1.45;;;6.90;81.10;;;;;;5074771;28;20374;-42
2023/04/26 07:51:40;;;;;;;7.82;2.85;;;6.90;81.00;;;;;;5057191;28;20099;-43
2023/04/26 07:54:07;;;;;;;7.03;1.92;;;7.10;80.00;;;;;;5057292;28;20070;-42
2023/04/26 07:56:32;;;;;;;8.63;1.45;;;7.30;78.70;;;;;;5056907;28;20029;-42
2023/04/26 07:58:59;;;;;;;6.43;2.10;;;7.50;78.80;;;;;;5058782;28;20040;-42
2023/04/26 08:01:25;;;;;;;7.00;2.17;;;7.80;76.70;;;;;;5095102;28;20047;-42
2023/04/26 08:03:53;;;;;;;2.83;0.98;;;7.90;74.90;;;;;;5094923;28;20067;-42
2023/04/26 08:06:19;;;;;;;3.47;1.05;;;8.40;75.00;;;;;;5094286;28;20050;-43
2023/04/26 08:08:49;;;;;;;6.05;1.42;;;9.20;75.00;;;;;;5077708;28;20036;-43
2023/04/26 08:11:15;;;;;;;9.20;1.40;;;10.00;72.90;;;;;;5080715;28;20036;-44
2023/04/26 08:13:44;;;;;;;4.65;1.10;;;10.90;72.00;;;;;;5059802;28;20037;-43
2023/04/26 08:16:11;;;;;;;9.00;1.50;;;11.30;67.40;;;;;;5094135;28;20093;-45
2023/04/26 08:18:38;;;;;;;7.00;2.63;;;11.50;65.80;;;;;;5072270;28;20032;-44
2023/04/26 08:21:05;;;;;;;9.05;2.00;;;11.80;65.80;;;;;;5072574;28;20467;-43
2023/04/26 08:23:35;;;;;;;5.93;1.60;;;11.80;64.30;;;;;;5073929;28;20017;-45
2023/04/26 08:26:06;;;;;;;6.85;1.63;;;11.60;62.40;;;;;;5073136;28;20366;-43
2023/04/26 08:28:42;;;;;;;8.75;1.35;;;11.90;63.40;;;;;;5074069;28;20039;-43
2023/04/26 08:31:08;;;;;;;7.63;1.52;;;10.90;62.90;;;;;;5074125;28;20040;-47
2023/04/26 08:33:36;;;;;;;8.20;1.63;;;9.90;65.40;;;;;;5073997;28;20028;-44
2023/04/26 08:36:05;;;;;;;7.03;1.67;;;9.30;67.90;;;;;;5073845;28;20031;-43
2023/04/26 08:38:34;;;;;;;13.00;1.50;;;8.80;70.70;;;;;;5073865;28;20330;-45
2023/04/26 08:41:01;;;;;;;2.85;0.77;;;8.80;68.50;;;;;;5074099;28;20025;-42
2023/04/26 08:43:30;;;;;;;11.55;1.60;;;8.60;68.60;;;;;;5057262;28;20031;-45
2023/04/26 08:45:59;;;;;;;13.05;3.33;;;8.40;69.20;;;;;;5093976;28;20032;-43
2023/04/26 08:48:27;;;;;;;;;;;8.90;69.70;;;;;;5067644;28;20032;-43
2023/04/26 08:50:54;;;;;;;6.65;0.95;;;9.60;68.50;;;;;;5039296;28;19927;-44
2023/04/26 08:53:20;;;;;;;5.13;0.88;;;10.30;63.20;;;;;;5055612;28;20111;-43
2023/04/26 08:55:50;;;;;;;3.03;1.73;;;10.50;63.90;;;;;;5073526;28;20116;-46
2023/04/26 08:58:21;;;;;;;8.77;1.63;;;10.60;62.90;;;;;;5056012;28;20033;-46
2023/04/26 09:00:49;;;;;;;5.55;1.45;;;10.90;61.50;;;;;;5073533;28;20031;-43
2023/04/26 09:03:16;;;;;;;7.82;1.58;;;11.30;61.30;;;;;;5055911;28;20630;-43
2023/04/26 09:05:44;;;;;;;8.70;2.20;;;11.40;60.60;;;;;;5073239;28;20047;-47
2023/04/26 09:08:20;;;;;;;7.10;1.30;;;10.90;63.00;;;;;;5055811;28;20059;-43
2023/04/26 09:10:51;;;;;;;3.63;1.13;;;10.60;61.80;;;;;;5056671;28;20446;-44
2023/04/26 09:13:20;;;;;;;4.03;1.40;;;10.80;62.10;;;;;;5073437;28;20021;-45
2023/04/26 09:15:48;;;;;;;6.30;1.30;;;11.30;61.70;;;;;;5073062;28;20024;-46
2023/04/26 09:18:25;;;;;;;7.93;1.42;;;11.80;60.30;;;;;;5073505;28;20025;-45
2023/04/26 09:21:05;;;;;;;9.52;1.23;;;11.60;60.60;;;;;;5040246;28;20053;-44
2023/04/26 09:23:34;;;;;;;7.80;1.10;;;11.90;56.70;;;;;;5055749;28;20400;-48
2023/04/26 09:26:21;;;;;;;5.22;1.27;;;12.20;58.30;;;;;;5073135;28;20028;-44
2023/04/26 09:28:48;;;;;;;8.32;2.22;;;11.80;59.20;;;;;;5055719;28;20513;-43
2023/04/26 09:31:41;;;;;;;3.92;1.50;;;12.00;59.20;;;;;;5039109;28;20124;-44
2023/04/26 09:34:08;;;;;;;7.13;1.52;;;12.00;57.80;;;;;;5070096;28;20032;-44
2023/04/26 09:36:46;;;;;;;5.57;1.30;;;12.10;60.70;;;;;;5055326;28;20032;-47
2023/04/26 09:39:30;;;;;;;6.10;1.67;;;11.40;58.70;;;;;;5055823;28;20036;-44
2023/04/26 09:41:58;;;;;;;5.32;1.67;;;10.60;61.70;;;;;;5072935;28;20016;-46
2023/04/26 09:44:25;;;;;;;5.03;1.35;;;10.70;62.80;;;;;;5055495;28;20033;-47
2023/04/26 09:47:08;;;;;;;4.30;1.20;;;11.30;62.20;;;;;;5049310;28;20067;-49
2023/04/26 09:49:50;;;;;;;5.15;1.10;;;11.60;57.80;;;;;;5093394;28;20039;-49
2023/04/26 09:52:18;;;;;;;4.20;1.13;;;11.90;57.40;;;;;;5057304;28;20110;-46
2023/04/26 09:55:05;;;;;;;7.10;1.48;;;12.40;58.30;;;;;;5072766;28;20112;-47
2023/04/26 09:57:42;;;;;;;6.93;1.45;;;12.40;53.60;;;;;;5072535;28;20334;-45
2023/04/26 10:00:11;;;;;;;6.80;1.23;;;12.60;55.30;;;;;;5055697;28;20115;-45
2023/04/26 10:02:40;;;;;;;6.75;1.67;;;12.80;56.70;;;;;;5073176;28;20040;-46
2023/04/26 10:05:06;;;;;;;2.83;1.10;;;12.90;51.90;;;;;;5055082;28;20028;-46
2023/04/26 10:07:34;;;;;;;8.88;1.45;;;13.10;53.50;;;;;;5072481;28;20111;-45
2023/04/26 10:10:03;;;;;;;6.13;1.20;;;12.40;54.00;;;;;;5072756;28;20028;-45
2023/04/26 10:12:33;;;;;;;6.03;1.23;;;12.20;52.80;;;;;;5072794;28;20393;-49
2023/04/26 10:15:03;;;;;;;4.45;1.42;;;12.70;57.80;;;;;;5054917;28;20032;-45
2023/04/26 10:17:31;;;;;;;5.70;1.95;;;13.20;53.60;;;;;;5072584;28;20445;-44
2023/04/26 10:20:21;;;;;;;4.38;1.50;;;12.90;53.00;;;;;;5073053;28;20122;-45
2023/04/26 10:22:59;;;;;;;8.55;1.55;;;12.00;53.90;;;;;;5058175;28;20058;-44
2023/04/26 10:25:43;;;;;;;9.48;2.35;;;11.50;55.70;;;;;;5085130;28;20032;-45
2023/04/26 10:28:13;;;;;;;5.20;1.23;;;11.40;57.90;;;;;;5093010;28;20046;-47
2023/04/26 10:31:01;;;;;;;4.70;1.13;;;10.90;57.20;;;;;;5092722;28;20039;-48
2023/04/26 10:33:27;;;;;;;8.18;2.30;;;10.90;59.00;;;;;;5092730;28;20028;-45
2023/04/26 10:36:12;;;;;;;5.78;1.30;;;10.80;55.80;;;;;;5075161;28;20163;-45
2023/04/26 10:39:21;;;;;;;4.68;1.70;;;10.90;55.10;;;;;;5074948;28;20112;-45
2023/04/26 10:42:22;;;;;;;7.22;1.58;;;11.40;58.20;;;;;;5068753;28;20048;-45
2023/04/26 10:44:57;;;;;;;6.97;1.30;;;11.30;56.00;;;;;;5076396;28;20039;-45
2023/04/26 10:47:45;;;;;;;8.45;1.88;;;10.90;56.10;;;;;;5054966;28;20033;-45
2023/04/26 10:50:12;;;;;;;8.85;1.83;;;10.40;57.30;;;;;;5058333;28;20016;-45
2023/04/26 10:52:59;;;;;;;7.97;1.95;;;10.30;58.00;;;;;;5075902;28;20164;-43
2023/04/26 10:55:46;;;;;;;3.88;1.88;;;10.30;58.90;;;;;;5074390;28;20467;-45
2023/04/26 10:58:47;;;;;;;5.65;1.10;;;10.20;57.80;;;;;;5074955;28;20040;-44
2023/04/26 11:01:22;;;;;;;3.55;1.13;;;10.60;53.60;;;;;;5075328;28;20109;-45
2023/04/26 11:04:00;;;;;;;7.68;1.55;;;10.80;56.50;;;;;;5075429;28;20302;-44
2023/04/26 11:06:51;;;;;;;5.70;1.23;;;11.20;59.10;;;;;;5075425;28;20017;-45
2023/04/26 11:09:36;;;;;;;4.00;1.65;;;11.40;56.90;;;;;;5077548;28;20107;-45
2023/04/26 11:12:09;;;;;;;6.43;1.40;;;11.50;53.30;;;;;;5095995;28;20016;-44
2023/04/26 11:14:36;;;;;;;5.65;1.23;;;11.90;53.40;;;;;;5095647;28;20231;-44
2023/04/26 11:17:05;;;;;;;5.30;1.63;;;11.40;54.00;;;;;;5063324;28;20047;-45
2023/04/26 11:19:32;;;;;;;7.53;1.70;;;11.70;56.90;;;;;;5058215;28;20028;-46
2023/04/26 11:22:03;;;;;;;4.85;1.25;;;11.10;58.10;;;;;;5075166;28;20453;-45
2023/04/26 11:24:38;;;;;;;4.07;1.23;;;10.70;58.90;;;;;;5075158;28;20025;-44
2023/04/26 11:27:11;;;;;;;5.85;1.13;;;10.20;58.70;;;;;;5075106;28;20090;-45
2023/04/26 11:29:40;;;;;;;4.38;1.20;;;10.00;59.90;;;;;;5075297;28;20028;-45
2023/04/26 11:32:17;;;;;;;3.60;1.42;;;10.10;59.70;;;;;;5075326;28;20478;-43
2023/04/26 11:34:46;;;;;;;3.72;0.80;;;10.50;57.50;;;;;;5075304;28;20052;-44
2023/04/26 11:37:15;;;;;;;3.38;0.80;;;11.10;54.80;;;;;;5075426;28;20078;-45
2023/04/26 11:39:47;;;;;;;5.97;1.33;;;11.60;53.80;;;;;;5057527;28;20047;-45
2023/04/26 11:42:13;;;;;;;4.65;1.40;;;11.90;55.10;;;;;;5057220;28;20413;-45
2023/04/26 11:44:41;;;;;;;4.53;1.23;;;12.00;54.00;;;;;;5074409;28;20025;-46
2023/04/26 11:47:10;;;;;;;6.68;1.70;;;12.10;55.60;;;;;;5073795;28;20365;-46
2023/04/26 11:49:37;;;;;;;8.50;1.85;;;11.90;52.80;;;;;;5074628;28;20028;-45
2023/04/26 11:52:07;;;;;;;6.57;1.30;;;11.90;54.50;;;;;;5056971;28;20037;-44
2023/04/26 11:54:36;;;;;;;6.38;1.33;;;11.90;56.10;;;;;;5057773;28;20028;-45
2023/04/26 11:57:16;;;;;;;5.03;1.43;;;12.10;56.40;;;;;;5057668;28;20044;-48
2023/04/26 11:59:44;;;;;;;7.95;1.90;;;12.00;58.20;;;;;;5041014;28;20131;-45
2023/04/26 12:02:11;;;;;;;8.60;2.05;;;10.90;62.10;;;;;;5057093;28;20032;-45
2023/04/26 12:04:39;;;;;;;10.52;2.58;;;10.00;65.40;;;;;;5074469;28;20028;-46
2023/04/26 12:07:07;;;;;;;5.57;1.15;;;9.50;66.90;;;;;;5074593;28;20032;-45
2023/04/26 12:09:36;;;;;;;4.75;1.15;;;9.20;65.80;;;;;;5057157;28;20053;-44
2023/04/26 12:12:10;;;;;;;4.10;1.30;;;9.00;65.70;;;;;;5093553;28;20103;-45
2023/04/26 12:14:38;;;;;;;8.85;2.13;;;9.20;65.30;;;;;;5076869;28;20469;-43
2023/04/26 12:17:06;;;;;;;4.95;1.48;;;9.90;63.00;;;;;;5076946;28;20035;-45
2023/04/26 12:19:42;;;;;;;5.18;1.58;;;10.30;60.10;;;;;;5075289;28;20811;-45
2023/04/26 12:22:10;;;;;;;12.70;2.38;;;10.60;59.90;;;;;;5074131;28;20118;-43
2023/04/26 12:24:37;;;;;;;5.50;1.70;;;10.60;59.70;;;;;;5074219;28;20090;-45
2023/04/26 12:27:05;;;;;;;9.40;3.25;;;10.70;61.10;;;;;;5074448;28;20060;-44
2023/04/26 12:29:34;;;;;;;7.07;1.75;;;11.10;59.90;;;;;;5074218;28;20098;-46
2023/04/26 12:32:04;;;;;;;8.70;2.13;;;10.90;55.10;;;;;;5039741;28;20164;-45
2023/04/26 12:34:32;;;;;;;3.65;1.02;;;11.00;56.90;;;;;;5073998;28;20032;-45
2023/04/26 12:37:05;;;;;;;4.20;1.20;;;11.00;54.60;;;;;;5074141;28;20020;-45
2023/04/26 12:39:30;;;;;;;4.07;1.05;;;10.60;54.50;;;;;;5074103;28;20025;-45
2023/04/26 12:41:59;;;;;;;5.32;1.52;;;10.20;56.70;;;;;;5073905;28;20044;-45
2023/04/26 12:44:25;;;;;;;5.80;1.27;;;9.90;59.20;;;;;;5073669;28;20028;-45
2023/04/26 12:46:53;;;;;;;8.32;1.30;;;9.70;61.80;;;;;;5073716;28;20370;-45
2023/04/26 12:49:19;;;;;;;7.13;1.80;;;9.60;62.20;;;;;;5073395;28;20025;-46
2023/04/26 12:51:48;;;;;;;6.72;1.88;;;9.60;63.90;;;;;;5073322;28;20037;-45
2023/04/26 12:54:15;;;;;;;5.13;1.55;;;9.70;64.40;;;;;;5055792;28;20107;-45
2023/04/26 12:56:43;;;;;;;5.40;1.85;;;9.80;64.30;;;;;;5073111;28;20139;-46
2023/04/26 12:59:10;;;;;;;4.55;1.33;;;9.90;62.00;;;;;;5080582;28;20062;-45
2023/04/26 13:01:35;;;;;;;6.57;1.25;;;10.10;61.60;;;;;;5093636;28;20360;-48
2023/04/26 13:04:04;;;;;;;6.40;1.63;;;10.10;60.50;;;;;;5093478;28;20028;-47
2023/04/26 13:06:33;;;;;;;7.00;1.70;;;10.20;60.90;;;;;;5074361;28;20089;-44